createdAt,value
2023-03-24T00:01:09.193Z,1.10
2023-03-24T00:03:37.116Z,1.27
2023-03-24T00:06:06.285Z,1.40
2023-03-24T00:08:37.125Z,1.23
2023-03-24T00:11:09.385Z,1.33
2023-03-24T00:13:39.840Z,1.13
2023-03-24T00:16:17.138Z,1.33
2023-03-24T00:18:44.496Z,1.17
2023-03-24T00:21:13.635Z,1.40
2023-03-24T00:23:42.820Z,1.47
2023-03-24T00:26:15.270Z,1.63
2023-03-24T00:28:45.662Z,1.40
2023-03-24T00:31:16.765Z,1.17
2023-03-24T00:33:50.605Z,1.33
2023-03-24T00:36:21.113Z,1.07
2023-03-24T00:38:50.535Z,1.93
2023-03-24T00:41:20.111Z,1.50
2023-03-24T00:43:50.348Z,1.10
2023-03-24T00:46:27.657Z,1.30
2023-03-24T00:49:06.526Z,1.33
2023-03-24T00:51:42.621Z,1.30
2023-03-24T00:54:12.788Z,1.40
2023-03-24T00:56:41.546Z,1.33
2023-03-24T00:59:10.481Z,1.70
2023-03-24T01:01:40.862Z,1.10
2023-03-24T01:04:10.404Z,1.23
2023-03-24T01:06:38.811Z,1.90
2023-03-24T01:09:07.198Z,1.50
2023-03-24T01:11:41.327Z,1.43
2023-03-24T01:14:10.483Z,1.67
2023-03-24T01:16:38.121Z,1.63
2023-03-24T01:19:07.161Z,1.53
2023-03-24T01:21:35.273Z,1.50
2023-03-24T01:24:03.544Z,1.30
2023-03-24T01:26:31.239Z,1.63
2023-03-24T01:28:58.616Z,1.30
2023-03-24T01:31:26.248Z,2.17
2023-03-24T01:33:53.418Z,1.43
2023-03-24T01:36:20.686Z,1.70
2023-03-24T01:38:47.915Z,1.67
2023-03-24T01:41:15.196Z,1.77
2023-03-24T01:43:44.434Z,1.67
2023-03-24T01:46:19.523Z,2.13
2023-03-24T01:49:05.579Z,1.47
2023-03-24T01:51:42.348Z,1.97
2023-03-24T01:54:34.316Z,4.03
2023-03-24T01:57:20.248Z,1.90
2023-03-24T01:59:52.267Z,1.50
2023-03-24T02:02:55.073Z,1.90
2023-03-24T02:05:38.287Z,2.00
2023-03-24T02:08:36.076Z,1.67
2023-03-24T02:11:03.940Z,2.07
2023-03-24T02:13:40.352Z,1.70
2023-03-24T02:16:46.539Z,2.13
2023-03-24T02:19:47.909Z,2.00
2023-03-24T02:22:33.487Z,2.10
2023-03-24T02:25:16.386Z,1.67
2023-03-24T02:28:02.792Z,2.03
2023-03-24T02:31:14.999Z,2.43
2023-03-24T02:34:00.368Z,2.00
2023-03-24T02:37:04.376Z,2.70
2023-03-24T02:39:57.733Z,2.93
2023-03-24T02:43:12.591Z,3.00
2023-03-24T02:46:30.885Z,2.93
2023-03-24T02:49:22.444Z,2.57
2023-03-24T02:52:18.246Z,1.63
2023-03-24T02:54:59.778Z,2.10
2023-03-24T02:57:34.540Z,2.27
2023-03-24T03:01:03.000Z,3.20
2023-03-24T03:04:17.124Z,1.97
2023-03-24T03:06:53.481Z,2.40
2023-03-24T03:09:22.936Z,2.00
2023-03-24T03:11:56.495Z,2.00
2023-03-24T03:14:41.957Z,2.43
2023-03-24T03:17:16.843Z,1.70
2023-03-24T03:19:58.725Z,1.73
2023-03-24T03:22:32.995Z,1.60
2023-03-24T03:25:02.398Z,1.53
2023-03-24T03:27:39.337Z,2.23
2023-03-24T03:30:21.424Z,2.50
2023-03-24T03:33:03.584Z,2.03
2023-03-24T03:35:54.692Z,2.30
2023-03-24T03:38:47.780Z,2.20
2023-03-24T03:41:18.334Z,2.10
2023-03-24T03:43:49.375Z,1.87
2023-03-24T03:46:18.525Z,2.10
2023-03-24T03:48:47.083Z,2.27
2023-03-24T03:51:16.197Z,1.80
2023-03-24T03:53:58.371Z,2.20
2023-03-24T03:56:33.606Z,1.87
2023-03-24T03:59:36.252Z,1.80
2023-03-24T04:02:29.755Z,2.47
2023-03-24T04:05:08.137Z,2.00
2023-03-24T04:07:58.612Z,2.10
2023-03-24T04:10:51.004Z,3.80
2023-03-24T04:13:24.831Z,1.77
2023-03-24T04:16:40.010Z,1.80
2023-03-24T04:19:44.704Z,1.90
2023-03-24T04:22:44.869Z,2.33
2023-03-24T04:25:29.708Z,2.17
2023-03-24T04:28:37.528Z,2.10
2023-03-24T04:31:37.279Z,1.87
2023-03-24T04:34:20.872Z,1.70
2023-03-24T04:37:05.297Z,2.03
2023-03-24T04:39:42.759Z,2.10
2023-03-24T04:42:25.595Z,2.97
2023-03-24T04:44:53.578Z,2.07
2023-03-24T04:47:32.014Z,2.57
2023-03-24T04:50:36.370Z,1.60
2023-03-24T04:53:09.377Z,2.50
2023-03-24T04:55:50.711Z,2.33
2023-03-24T04:58:38.034Z,1.80
2023-03-24T05:01:09.109Z,2.23
2023-03-24T05:03:38.961Z,2.50
2023-03-24T05:06:08.012Z,1.80
2023-03-24T05:08:35.492Z,1.80
2023-03-24T05:11:02.892Z,1.50
2023-03-24T05:13:32.362Z,2.93
2023-03-24T05:16:03.432Z,2.30
2023-03-24T05:18:46.040Z,2.00
2023-03-24T05:21:13.577Z,2.40
2023-03-24T05:23:40.793Z,2.60
2023-03-24T05:26:08.850Z,1.77
2023-03-24T05:28:48.637Z,1.50
2023-03-24T05:31:15.794Z,2.00
2023-03-24T05:33:57.488Z,2.20
2023-03-24T05:36:26.066Z,2.00
2023-03-24T05:38:58.822Z,2.30
2023-03-24T05:41:35.561Z,2.33
2023-03-24T05:44:02.978Z,1.80
2023-03-24T05:46:30.293Z,2.50
2023-03-24T05:48:58.117Z,2.40
2023-03-24T05:51:31.170Z,2.20
2023-03-24T05:54:06.009Z,2.20
2023-03-24T05:56:41.843Z,2.30
2023-03-24T05:59:09.280Z,2.57
2023-03-24T06:02:05.781Z,2.10
2023-03-24T06:04:59.238Z,2.10
2023-03-24T06:07:30.731Z,2.13
2023-03-24T06:10:03.190Z,2.13
2023-03-24T06:12:39.159Z,2.40
2023-03-24T06:15:07.673Z,1.80
2023-03-24T06:17:35.210Z,1.70
2023-03-24T06:20:15.701Z,1.70
2023-03-24T06:23:18.409Z,1.63
2023-03-24T06:26:11.744Z,1.60
2023-03-24T06:28:58.685Z,1.40
2023-03-24T06:31:30.870Z,1.73
2023-03-24T06:33:58.128Z,1.80
2023-03-24T06:36:25.972Z,2.00
2023-03-24T06:38:54.092Z,2.10
2023-03-24T06:41:22.809Z,2.10
2023-03-24T06:43:55.623Z,1.50
2023-03-24T06:46:23.557Z,1.87
2023-03-24T06:48:51.207Z,1.93
2023-03-24T06:51:18.611Z,2.63
2023-03-24T06:53:46.875Z,1.80
2023-03-24T06:56:19.991Z,2.03
2023-03-24T06:58:53.012Z,1.93
2023-03-24T07:01:26.400Z,1.90
2023-03-24T07:03:59.481Z,1.70
2023-03-24T07:06:40.204Z,1.70
2023-03-24T07:09:14.834Z,1.80
2023-03-24T07:11:41.844Z,1.93
2023-03-24T07:14:09.047Z,2.17
2023-03-24T07:16:37.050Z,1.87
2023-03-24T07:19:22.710Z,1.50
2023-03-24T07:21:57.794Z,2.03
2023-03-24T07:24:37.988Z,2.33
2023-03-24T07:27:24.986Z,1.60
2023-03-24T07:29:52.113Z,1.57
2023-03-24T07:32:34.996Z,1.90
2023-03-24T07:35:02.706Z,1.40
2023-03-24T07:37:29.807Z,1.07
2023-03-24T07:39:56.936Z,1.87
2023-03-24T07:42:25.652Z,1.30
2023-03-24T07:45:15.699Z,1.53
2023-03-24T07:47:45.541Z,1.47
2023-03-24T07:50:14.470Z,1.30
2023-03-24T07:52:45.484Z,2.00
2023-03-24T07:55:15.962Z,1.30
2023-03-24T07:57:57.077Z,1.67
2023-03-24T08:00:29.615Z,1.73
2023-03-24T08:03:25.598Z,1.30
2023-03-24T08:06:19.170Z,1.73
2023-03-24T08:08:56.044Z,1.53
2023-03-24T08:11:23.232Z,1.63
2023-03-24T08:13:50.458Z,1.50
2023-03-24T08:16:17.828Z,1.80
2023-03-24T08:18:45.039Z,1.73
2023-03-24T08:21:12.189Z,1.50
2023-03-24T08:23:39.732Z,1.83
2023-03-24T08:26:07.420Z,1.40
2023-03-24T08:28:34.591Z,1.73
2023-03-24T08:31:01.816Z,2.07
2023-03-24T08:33:29.046Z,1.47
2023-03-24T08:35:58.009Z,1.80
2023-03-24T08:38:30.763Z,1.63
2023-03-24T08:41:02.322Z,2.20
2023-03-24T08:43:31.350Z,1.97
2023-03-24T08:46:00.004Z,1.73
2023-03-24T08:48:29.146Z,1.77
2023-03-24T08:50:56.748Z,2.03
2023-03-24T08:53:24.210Z,2.03
2023-03-24T08:55:51.556Z,2.63
2023-03-24T08:58:23.026Z,2.20
2023-03-24T09:00:51.383Z,1.97
2023-03-24T09:03:22.669Z,1.57
2023-03-24T09:05:50.745Z,1.40
2023-03-24T09:08:19.501Z,1.67
2023-03-24T09:10:47.111Z,1.97
2023-03-24T09:13:14.999Z,1.67
2023-03-24T09:15:51.595Z,1.90
2023-03-24T09:18:21.590Z,2.07
2023-03-24T09:20:49.242Z,1.43
2023-03-24T09:23:17.328Z,1.63
2023-03-24T09:25:45.174Z,2.27
2023-03-24T09:28:13.853Z,2.60
2023-03-24T09:30:40.873Z,1.90
2023-03-24T09:33:08.067Z,1.60
2023-03-24T09:35:35.597Z,1.60
2023-03-24T09:38:02.750Z,1.50
2023-03-24T09:40:35.359Z,1.37
2023-03-24T09:43:28.571Z,1.80
2023-03-24T09:45:59.115Z,1.17
2023-03-24T09:48:35.807Z,1.57
2023-03-24T09:51:12.666Z,1.20
2023-03-24T09:53:57.875Z,0.93
2023-03-24T09:56:26.512Z,1.87
2023-03-24T09:59:00.879Z,1.10
2023-03-24T10:01:28.421Z,1.00
2023-03-24T10:04:00.317Z,1.10
2023-03-24T10:06:40.008Z,1.20
2023-03-24T10:09:29.227Z,1.20
2023-03-24T10:12:36.770Z,1.10
2023-03-24T10:15:39.196Z,1.00
2023-03-24T10:18:12.563Z,0.90
2023-03-24T10:21:10.357Z,0.90
2023-03-24T10:23:46.570Z,0.90
2023-03-24T10:26:53.945Z,0.70
2023-03-24T10:29:32.172Z,0.70
2023-03-24T10:32:11.569Z,0.70
2023-03-24T10:34:39.680Z,0.87
2023-03-24T10:37:07.418Z,0.70
2023-03-24T10:39:44.022Z,0.90
2023-03-24T10:42:21.964Z,0.90
2023-03-24T10:44:51.529Z,0.63
2023-03-24T10:47:28.017Z,0.67
2023-03-24T10:50:14.126Z,0.60
2023-03-24T10:52:47.372Z,0.60
2023-03-24T10:55:19.195Z,0.80
2023-03-24T10:58:34.705Z,0.50
2023-03-24T11:01:03.431Z,0.60
2023-03-24T11:03:33.102Z,0.60
2023-03-24T11:06:03.311Z,0.60
2023-03-24T11:08:38.320Z,0.60
2023-03-24T11:11:24.248Z,0.63
2023-03-24T11:13:57.673Z,0.60
2023-03-24T11:16:43.750Z,0.60
2023-03-24T11:19:24.899Z,0.70
2023-03-24T11:21:57.998Z,0.60
2023-03-24T11:24:26.167Z,0.50
2023-03-24T11:27:03.276Z,0.73
2023-03-24T11:29:34.339Z,0.70
2023-03-24T11:32:05.543Z,0.70
2023-03-24T11:34:38.863Z,0.80
2023-03-24T11:37:12.636Z,0.70
2023-03-24T11:39:40.339Z,0.80
2023-03-24T11:42:17.835Z,0.77
2023-03-24T11:44:49.248Z,1.03
2023-03-24T11:47:31.928Z,0.50
2023-03-24T11:50:11.720Z,0.70
2023-03-24T11:52:52.786Z,0.63
2023-03-24T11:56:03.599Z,0.73
2023-03-24T11:58:33.745Z,0.60
2023-03-24T12:01:31.040Z,0.60
2023-03-24T12:04:30.865Z,0.77
2023-03-24T12:07:39.633Z,0.70
2023-03-24T12:10:30.944Z,0.63
2023-03-24T12:13:32.805Z,0.60
2023-03-24T12:16:43.101Z,0.70
2023-03-24T12:19:33.522Z,0.60
2023-03-24T12:22:09.874Z,0.60
2023-03-24T12:25:08.946Z,0.60
2023-03-24T12:28:10.459Z,0.70
2023-03-24T12:31:22.813Z,0.77
2023-03-24T12:34:33.863Z,0.60
2023-03-24T12:37:27.311Z,0.63
2023-03-24T12:40:35.049Z,0.60
2023-03-24T12:43:27.585Z,0.67
2023-03-24T12:45:58.066Z,0.57
2023-03-24T12:48:53.949Z,0.57
2023-03-24T12:51:56.759Z,0.50
2023-03-24T12:55:09.105Z,0.70
2023-03-24T12:57:50.126Z,0.60
2023-03-24T13:00:32.195Z,0.70
2023-03-24T13:03:06.102Z,0.60
2023-03-24T13:05:42.085Z,0.77
2023-03-24T13:08:32.385Z,0.60
2023-03-24T13:11:07.174Z,0.70
2023-03-24T13:13:42.496Z,0.60
2023-03-24T13:16:23.893Z,0.60
2023-03-24T13:18:56.529Z,0.60
2023-03-24T13:21:26.502Z,0.70
2023-03-24T13:24:09.150Z,0.60
2023-03-24T13:26:42.872Z,0.77
2023-03-24T13:29:48.573Z,0.80
2023-03-24T13:32:23.561Z,0.80
2023-03-24T13:35:15.745Z,0.70
2023-03-24T13:38:11.455Z,0.80
2023-03-24T13:40:41.084Z,0.60
2023-03-24T13:43:20.669Z,0.70
2023-03-24T13:45:53.456Z,0.80
2023-03-24T13:48:39.229Z,0.70
2023-03-24T13:51:21.987Z,0.70
2023-03-24T13:53:59.615Z,0.70
2023-03-24T13:56:42.754Z,0.80
2023-03-24T13:59:33.123Z,0.67
2023-03-24T14:02:41.238Z,1.00
2023-03-24T14:05:26.238Z,2.70
2023-03-24T14:07:59.106Z,1.27
2023-03-24T14:10:26.303Z,1.63
2023-03-24T14:12:59.109Z,2.00
2023-03-24T14:15:56.433Z,1.60
2023-03-24T14:18:23.749Z,1.10
2023-03-24T14:20:56.988Z,0.90
2023-03-24T14:23:49.394Z,1.27
2023-03-24T14:26:36.786Z,1.30
2023-03-24T14:29:03.953Z,1.40
2023-03-24T14:31:33.929Z,1.00
2023-03-24T14:34:14.955Z,3.70
2023-03-24T14:36:45.045Z,0.93
2023-03-24T14:39:36.873Z,0.90
2023-03-24T14:42:31.817Z,1.40
2023-03-24T14:45:05.733Z,1.00
2023-03-24T14:47:37.674Z,0.83
2023-03-24T14:50:19.367Z,0.90
2023-03-24T14:52:59.968Z,1.10
2023-03-24T14:55:27.487Z,1.20
2023-03-24T14:58:00.002Z,1.30
2023-03-24T15:00:36.623Z,1.03
2023-03-24T15:03:23.621Z,1.27
2023-03-24T15:05:51.087Z,0.97
2023-03-24T15:08:23.559Z,0.77
2023-03-24T15:11:05.235Z,1.07
2023-03-24T15:13:44.170Z,0.70
2023-03-24T15:16:11.227Z,0.90
2023-03-24T15:19:01.893Z,0.90
2023-03-24T15:21:38.901Z,0.90
2023-03-24T15:24:21.694Z,0.80
2023-03-24T15:27:14.536Z,1.03
2023-03-24T15:29:46.510Z,0.80
2023-03-24T15:32:21.135Z,1.10
2023-03-24T15:34:55.201Z,1.37
2023-03-24T15:37:48.579Z,1.77
2023-03-24T15:40:35.672Z,1.10
2023-03-24T15:43:07.927Z,1.10
2023-03-24T15:45:51.021Z,1.00
2023-03-24T15:48:26.318Z,0.90
2023-03-24T15:51:06.437Z,0.70
2023-03-24T15:53:33.451Z,0.80
2023-03-24T15:56:20.923Z,0.90
2023-03-24T15:58:57.931Z,0.80
2023-03-24T16:01:36.164Z,1.00
2023-03-24T16:04:19.132Z,1.00
2023-03-24T16:06:54.420Z,1.10
2023-03-24T16:09:27.281Z,1.20
2023-03-24T16:11:56.934Z,1.60
2023-03-24T16:14:26.598Z,1.67
2023-03-24T16:17:00.889Z,1.20
2023-03-24T16:19:28.613Z,0.80
2023-03-24T16:21:56.415Z,1.20
2023-03-24T16:24:23.558Z,1.10
2023-03-24T16:26:50.686Z,1.30
2023-03-24T16:29:21.940Z,1.07
2023-03-24T16:31:56.348Z,0.90
2023-03-24T16:34:24.426Z,0.90
2023-03-24T16:36:54.432Z,1.17
2023-03-24T16:39:27.683Z,1.40
2023-03-24T16:41:56.398Z,1.20
2023-03-24T16:44:24.647Z,1.40
2023-03-24T16:46:54.046Z,1.30
2023-03-24T16:49:23.812Z,1.50
2023-03-24T16:51:52.891Z,1.20
2023-03-24T16:54:21.095Z,0.90
2023-03-24T16:56:48.592Z,1.10
2023-03-24T16:59:15.999Z,1.10
2023-03-24T17:01:46.192Z,1.10
2023-03-24T17:04:19.921Z,0.70
2023-03-24T17:06:55.367Z,0.90
2023-03-24T17:09:23.068Z,0.93
2023-03-24T17:11:57.539Z,0.80
2023-03-24T17:14:24.808Z,0.90
2023-03-24T17:16:53.464Z,1.00
2023-03-24T17:19:22.746Z,0.63
2023-03-24T17:22:02.255Z,0.80
2023-03-24T17:24:35.673Z,1.10
2023-03-24T17:27:03.741Z,0.90
2023-03-24T17:29:31.673Z,1.00
2023-03-24T17:31:58.864Z,0.70
2023-03-24T17:34:25.946Z,0.80
2023-03-24T17:36:53.127Z,0.77
2023-03-24T17:39:21.846Z,0.80
2023-03-24T17:41:49.081Z,1.20
2023-03-24T17:44:16.394Z,1.20
2023-03-24T17:46:43.497Z,1.53
2023-03-24T17:49:10.902Z,0.90
2023-03-24T17:51:37.939Z,1.13
2023-03-24T17:54:05.655Z,0.70
2023-03-24T17:56:32.837Z,1.10
2023-03-24T17:59:00.135Z,1.33
2023-03-24T18:01:29.465Z,1.17
2023-03-24T18:03:57.988Z,1.03
2023-03-24T18:06:25.409Z,0.90
2023-03-24T18:08:52.581Z,0.97
2023-03-24T18:11:20.506Z,1.00
2023-03-24T18:13:47.906Z,1.00
2023-03-24T18:16:21.989Z,1.20
2023-03-24T18:18:51.129Z,1.87
2023-03-24T18:21:20.433Z,1.20
2023-03-24T18:23:48.598Z,1.80
2023-03-24T18:26:18.200Z,1.30
2023-03-24T18:28:52.270Z,1.13
2023-03-24T18:31:23.609Z,1.23
2023-03-24T18:33:51.612Z,1.23
2023-03-24T18:36:22.170Z,0.97
2023-03-24T18:38:49.696Z,1.10
2023-03-24T18:41:18.566Z,1.27
2023-03-24T18:43:47.634Z,2.60
2023-03-24T18:46:16.320Z,1.43
2023-03-24T18:48:44.517Z,1.30
2023-03-24T18:51:12.296Z,1.70
2023-03-24T18:53:39.965Z,2.03
2023-03-24T18:56:08.690Z,1.37
2023-03-24T18:58:38.379Z,1.67
2023-03-24T19:01:12.349Z,2.77
2023-03-24T19:03:42.189Z,1.83
2023-03-24T19:06:14.308Z,1.70
2023-03-24T19:08:46.365Z,1.97
2023-03-24T19:11:15.931Z,3.37
2023-03-24T19:13:49.758Z,1.70
2023-03-24T19:16:19.346Z,1.30
2023-03-24T19:18:48.557Z,1.43
2023-03-24T19:21:17.109Z,1.23
2023-03-24T19:23:46.849Z,1.43
2023-03-24T19:26:16.478Z,1.30
2023-03-24T19:28:44.258Z,1.30
2023-03-24T19:31:17.519Z,1.57
2023-03-24T19:33:46.664Z,1.83
2023-03-24T19:36:15.590Z,2.30
2023-03-24T19:38:42.906Z,1.80
2023-03-24T19:41:13.256Z,2.10
2023-03-24T19:43:40.417Z,2.43
2023-03-24T19:46:07.902Z,1.57
2023-03-24T19:48:35.605Z,1.80
2023-03-24T19:51:03.580Z,1.30
2023-03-24T19:53:31.150Z,1.70
2023-03-24T19:55:59.872Z,1.97
2023-03-24T19:58:27.113Z,1.67
2023-03-24T20:00:54.392Z,1.40
2023-03-24T20:03:22.316Z,2.13
2023-03-24T20:05:50.381Z,3.13
2023-03-24T20:08:19.221Z,3.10
2023-03-24T20:10:47.020Z,2.40
2023-03-24T20:13:20.538Z,2.30
2023-03-24T20:15:47.800Z,2.70
2023-03-24T20:18:15.120Z,2.20
2023-03-24T20:20:42.289Z,2.03
2023-03-24T20:23:10.523Z,1.40
2023-03-24T20:25:42.174Z,1.40
2023-03-24T20:28:09.558Z,2.47
2023-03-24T20:30:36.606Z,1.73
2023-03-24T20:33:03.843Z,1.77
2023-03-24T20:35:31.477Z,1.70
2023-03-24T20:37:58.588Z,1.80
2023-03-24T20:40:25.721Z,2.90
2023-03-24T20:42:53.230Z,2.60
2023-03-24T20:45:20.331Z,3.37
2023-03-24T20:47:47.791Z,2.27
2023-03-24T20:50:14.970Z,2.30
2023-03-24T20:52:42.250Z,2.40
2023-03-24T20:55:11.470Z,2.10
2023-03-24T20:57:38.636Z,1.43
2023-03-24T21:00:14.459Z,1.53
2023-03-24T21:02:44.650Z,1.77
2023-03-24T21:05:11.830Z,1.93
2023-03-24T21:07:42.446Z,1.70
2023-03-24T21:10:10.271Z,1.37
2023-03-24T21:12:53.963Z,1.50
2023-03-24T21:15:26.133Z,1.00
2023-03-24T21:17:54.278Z,1.13
2023-03-24T21:20:21.578Z,1.47
2023-03-24T21:22:55.900Z,1.23
2023-03-24T21:25:26.197Z,1.67
2023-03-24T21:27:54.930Z,1.30
2023-03-24T21:30:23.691Z,0.97
2023-03-24T21:32:53.200Z,1.07
2023-03-24T21:35:21.513Z,1.30
2023-03-24T21:37:49.491Z,1.43
2023-03-24T21:40:19.727Z,2.00
2023-03-24T21:42:49.772Z,1.30
2023-03-24T21:45:20.450Z,1.47
2023-03-24T21:47:49.131Z,1.20
2023-03-24T21:50:22.854Z,1.87
2023-03-24T21:52:54.717Z,1.90
2023-03-24T21:55:25.254Z,2.30
2023-03-24T21:57:52.904Z,1.80
2023-03-24T22:00:23.877Z,1.73
2023-03-24T22:02:54.101Z,1.50
2023-03-24T22:05:24.725Z,1.30
2023-03-24T22:07:52.808Z,0.97
2023-03-24T22:10:23.008Z,1.00
2023-03-24T22:12:52.057Z,1.20
2023-03-24T22:15:20.486Z,1.73
2023-03-24T22:17:47.643Z,1.23
2023-03-24T22:20:15.764Z,1.40
2023-03-24T22:22:43.293Z,1.73
2023-03-24T22:25:13.977Z,1.20
2023-03-24T22:27:41.381Z,1.30
2023-03-24T22:30:12.385Z,1.73
2023-03-24T22:32:40.468Z,0.80
2023-03-24T22:35:08.754Z,1.07
2023-03-24T22:37:35.855Z,1.50
2023-03-24T22:40:03.680Z,0.90
2023-03-24T22:42:30.775Z,1.30
2023-03-24T22:44:57.886Z,1.03
2023-03-24T22:47:25.009Z,1.00
2023-03-24T22:49:52.139Z,1.50
2023-03-24T22:52:19.228Z,1.30
2023-03-24T22:54:46.369Z,1.13
2023-03-24T22:57:13.513Z,1.17
2023-03-24T22:59:40.621Z,1.57
2023-03-24T23:02:10.368Z,1.13
2023-03-24T23:04:40.479Z,1.17
2023-03-24T23:07:07.824Z,1.17
2023-03-24T23:09:36.579Z,1.20
2023-03-24T23:12:04.662Z,1.00
2023-03-24T23:14:31.759Z,0.80
2023-03-24T23:16:59.197Z,1.37
2023-03-24T23:19:26.533Z,1.10
2023-03-24T23:21:53.541Z,1.10
2023-03-24T23:24:20.598Z,1.30
2023-03-24T23:26:47.846Z,1.33
2023-03-24T23:29:14.928Z,1.80
2023-03-24T23:31:42.017Z,1.33
2023-03-24T23:34:11.478Z,1.33
2023-03-24T23:36:44.748Z,1.40
2023-03-24T23:39:12.140Z,1.00
2023-03-24T23:41:39.300Z,1.63
2023-03-24T23:44:06.385Z,1.20
2023-03-24T23:46:33.733Z,1.20
2023-03-24T23:49:01.301Z,1.10
2023-03-24T23:51:28.483Z,1.17
2023-03-24T23:53:55.658Z,1.00
2023-03-24T23:56:22.852Z,1.30
2023-03-24T23:58:50.052Z,1.40
